Observations for ODIHAM RAF, United Kingdom (EGVO)

EGVO 200550Z AUTO 24003KT 5000 HZ NCD 07/06 Q1030   
EGVO 200450Z AUTO 28004KT 6000 HZ NCD 08/06 Q1030   
EGVO 200350Z AUTO 26005KT 9999 NCD 08/05 Q1030  
EGVO 200250Z AUTO 27005KT 9999 NCD 08/05 Q1031  
EGVO 200150Z AUTO 27004KT 9999 NCD 08/04 Q1030  
EGVO 200050Z AUTO 28002KT 9999 NCD 09/04 Q1030  
EGVO 192350Z AUTO 27002KT 9999 NCD 10/04 Q1030  
EGVO 192250Z AUTO 32002KT 9999 NCD 10/03 Q1030  
EGVO 192150Z AUTO 05003KT 9999 NCD 12/03 Q1030  
EGVO 192050Z AUTO 09005KT 9999 NCD 14/03 Q1030  
EGVO 191950Z AUTO 07006KT 9999 NCD 16/04 Q1030  
EGVO 191850Z AUTO 07007KT 9999 NCD 18/04 Q1029  
EGVO 191750Z AUTO 09009KT 9999 NCD 21/05 Q1028  
EGVO 191650Z AUTO 07008KT 9999 NCD 22/05 Q1028  
EGVO 191550Z AUTO 04007KT 9999 NCD 22/05 Q1027  
EGVO 191450Z AUTO 06008KT 9999 NCD 23/05 Q1028  
EGVO 191350Z AUTO 06007KT 9999 NCD 22/06 Q1028  
EGVO 191250Z AUTO 03007KT 9999 NCD 22/08 Q1028  
EGVO 191150Z AUTO 03009KT 9999 NCD 21/08 Q1028  
EGVO 191050Z AUTO 03007KT 9999 NCD 19/08 Q1028  
EGVO 190950Z AUTO 01005KT 9999 NCD 17/08 Q1028  
EGVO 190850Z AUTO 36005KT 9000 HZ NCD 14/08 Q1028   
EGVO 190750Z AUTO 03004KT 8000 HZ NCD 12/07 Q1027   
EGVO 190650Z AUTO 36003KT 7000 HZ NCD 09/06 Q1027   
EGVO 190550Z AUTO 33003KT 7000 HZ NCD 07/05 Q1027